createdAt,value
2022-09-12T00:01:51.724Z,99120.95
2022-09-12T00:04:22.520Z,99123.88
2022-09-12T00:06:53.871Z,99123.13
2022-09-12T00:09:24.613Z,99129.07
2022-09-12T00:11:55.253Z,99127.83
2022-09-12T00:14:25.990Z,99129.70
2022-09-12T00:17:00.700Z,99127.48
2022-09-12T00:19:31.946Z,99125.05
2022-09-12T00:22:02.655Z,99122.39
2022-09-12T00:24:34.530Z,99124.70
2022-09-12T00:27:05.626Z,99128.30
2022-09-12T00:29:36.550Z,99124.24
2022-09-12T00:32:07.346Z,99119.13
2022-09-12T00:34:38.916Z,99115.50
2022-09-12T00:37:09.557Z,99119.77
2022-09-12T00:39:40.456Z,99121.15
2022-09-12T00:42:13.303Z,99122.22
2022-09-12T00:44:52.923Z,99123.36
2022-09-12T00:47:24.611Z,99123.51
2022-09-12T00:50:02.543Z,99124.48
2022-09-12T00:52:38.337Z,99115.90
2022-09-12T00:55:14.278Z,99111.84
2022-09-12T00:57:51.407Z,99113.35
2022-09-12T01:00:24.264Z,99119.02
2022-09-12T01:02:58.606Z,99116.29
2022-09-12T01:05:31.826Z,99117.34
2022-09-12T01:08:04.797Z,99119.00
2022-09-12T01:10:38.816Z,99115.52
2022-09-12T01:13:11.391Z,99119.30
2022-09-12T01:15:42.848Z,99111.91
2022-09-12T01:18:26.084Z,99108.44
2022-09-12T01:21:17.104Z,99105.55
2022-09-12T01:24:34.951Z,99105.33
2022-09-12T01:27:45.487Z,99107.05
2022-09-12T01:30:45.960Z,99101.06
2022-09-12T01:33:36.021Z,99108.02
2022-09-12T01:36:35.074Z,99108.05
2022-09-12T01:39:12.026Z,99109.85
2022-09-12T01:41:54.563Z,99106.33
2022-09-12T01:44:36.439Z,99105.79
2022-09-12T01:47:11.190Z,99111.72
2022-09-12T01:49:52.081Z,99104.12
2022-09-12T01:52:27.813Z,99102.52
2022-09-12T01:55:06.552Z,99104.66
2022-09-12T01:57:45.792Z,99109.40
2022-09-12T02:00:17.451Z,99112.11
2022-09-12T02:02:53.198Z,99114.55
2022-09-12T02:05:30.281Z,99108.32
2022-09-12T02:08:08.208Z,99111.89
2022-09-12T02:10:47.621Z,99113.05
2022-09-12T02:13:25.037Z,99109.35
2022-09-12T02:16:00.468Z,99110.33
2022-09-12T02:18:34.555Z,99107.30
2022-09-12T02:21:09.104Z,99106.83
2022-09-12T02:23:43.612Z,99106.86
2022-09-12T02:26:21.724Z,99106.61
2022-09-12T02:28:52.802Z,99105.14
2022-09-12T02:31:28.860Z,99104.20
2022-09-12T02:34:10.402Z,99098.17
2022-09-12T02:36:51.183Z,99094.67
2022-09-12T02:39:22.032Z,99093.29
2022-09-12T02:41:54.870Z,99093.92
2022-09-12T02:44:28.204Z,99095.23
2022-09-12T02:47:04.576Z,99091.54
2022-09-12T02:49:35.732Z,99096.23
2022-09-12T02:52:07.019Z,99091.86
2022-09-12T02:54:38.307Z,99087.10
2022-09-12T02:57:22.387Z,99092.14
2022-09-12T02:59:57.196Z,99086.65
2022-09-12T03:02:39.168Z,99083.73
2022-09-12T03:05:26.023Z,99088.80
2022-09-12T03:08:22.722Z,99086.98
2022-09-12T03:11:09.948Z,99089.16
2022-09-12T03:13:52.543Z,99087.59
2022-09-12T03:16:30.821Z,99097.32
2022-09-12T03:19:10.828Z,99095.25
2022-09-12T03:21:54.141Z,99091.99
2022-09-12T03:24:33.035Z,99088.59
2022-09-12T03:27:11.362Z,99091.83
2022-09-12T03:29:44.801Z,99091.29
2022-09-12T03:32:15.704Z,99093.30
2022-09-12T03:34:46.648Z,99093.00
2022-09-12T03:37:17.427Z,99097.40
2022-09-12T03:39:48.140Z,99102.89
2022-09-12T03:42:19.097Z,99102.87
2022-09-12T03:44:49.803Z,99095.64
2022-09-12T03:47:20.542Z,99100.46
2022-09-12T03:49:52.620Z,99103.31
2022-09-12T03:52:23.373Z,99098.88
2022-09-12T03:54:54.603Z,99101.23
2022-09-12T03:57:25.212Z,99100.52
2022-09-12T03:59:55.869Z,99097.96
2022-09-12T04:02:26.755Z,99099.05
2022-09-12T04:04:57.651Z,99101.45
2022-09-12T04:07:28.596Z,99103.98
2022-09-12T04:09:59.279Z,99100.15
2022-09-12T04:12:30.182Z,99100.31
2022-09-12T04:15:00.910Z,99102.21
2022-09-12T04:17:31.855Z,99099.30
2022-09-12T04:20:02.677Z,99102.64
2022-09-12T04:22:33.944Z,99105.05
2022-09-12T04:25:05.373Z,99101.81
2022-09-12T04:27:36.766Z,99100.92
2022-09-12T04:30:09.809Z,99100.39
2022-09-12T04:32:41.604Z,99102.23
2022-09-12T04:35:14.093Z,99101.80
2022-09-12T04:37:44.750Z,99105.60
2022-09-12T04:40:15.677Z,99101.01
2022-09-12T04:42:46.499Z,99101.95
2022-09-12T04:45:17.193Z,99103.57
2022-09-12T04:47:47.825Z,99100.27
2022-09-12T04:50:18.737Z,99101.87
2022-09-12T04:52:54.049Z,99103.38
2022-09-12T04:55:26.262Z,99107.45
2022-09-12T04:57:56.871Z,99110.14
2022-09-12T05:00:27.808Z,99101.74
2022-09-12T05:02:58.549Z,99102.55
2022-09-12T05:05:29.255Z,99109.21
2022-09-12T05:07:59.969Z,99111.08
2022-09-12T05:10:31.372Z,99115.23
2022-09-12T05:13:02.317Z,99116.00
2022-09-12T05:15:33.138Z,99117.27
2022-09-12T05:18:03.800Z,99115.71
2022-09-12T05:20:35.863Z,99116.30
2022-09-12T05:23:06.508Z,99120.66
2022-09-12T05:25:37.120Z,99119.66
2022-09-12T05:28:07.842Z,99119.37
2022-09-12T05:30:38.604Z,99126.64
2022-09-12T05:33:09.370Z,99123.48
2022-09-12T05:35:40.486Z,99124.20
2022-09-12T05:38:11.176Z,99127.35
2022-09-12T05:40:41.818Z,99133.05
2022-09-12T05:43:13.323Z,99134.58
2022-09-12T05:45:44.200Z,99138.18
2022-09-12T05:48:14.927Z,99143.05
2022-09-12T05:50:46.313Z,99140.02
2022-09-12T05:53:17.445Z,99138.39
2022-09-12T05:55:48.065Z,99132.73
2022-09-12T05:58:18.983Z,99134.42
2022-09-12T06:00:49.918Z,99138.63
2022-09-12T06:03:21.067Z,99140.20
2022-09-12T06:05:51.677Z,99138.13
2022-09-12T06:08:22.685Z,99132.75
2022-09-12T06:10:53.299Z,99131.46
2022-09-12T06:13:24.396Z,99130.62
2022-09-12T06:15:55.526Z,99130.77
2022-09-12T06:18:26.231Z,99137.55
2022-09-12T06:20:56.866Z,99142.98
2022-09-12T06:23:27.994Z,99146.60
2022-09-12T06:25:58.633Z,99145.83
2022-09-12T06:28:30.109Z,99149.92
2022-09-12T06:31:07.469Z,99147.08
2022-09-12T06:33:39.748Z,99148.23
2022-09-12T06:36:13.362Z,99145.73
2022-09-12T06:38:44.165Z,99146.76
2022-09-12T06:41:16.156Z,99147.89
2022-09-12T06:43:46.794Z,99150.02
2022-09-12T06:46:17.793Z,99154.85
2022-09-12T06:48:48.899Z,99154.73
2022-09-12T06:51:21.281Z,99155.34
2022-09-12T06:53:52.715Z,99159.86
2022-09-12T06:56:25.195Z,99158.23
2022-09-12T06:58:57.380Z,99160.13
2022-09-12T07:01:29.672Z,99163.33
2022-09-12T07:04:02.316Z,99162.64
2022-09-12T07:06:37.016Z,99166.47
2022-09-12T07:09:10.075Z,99170.08
2022-09-12T07:11:43.330Z,99169.67
2022-09-12T07:14:15.540Z,99175.68
2022-09-12T07:16:46.467Z,99179.79
2022-09-12T07:19:17.191Z,99179.79
2022-09-12T07:21:50.264Z,99181.33
2022-09-12T07:24:20.912Z,99184.45
2022-09-12T07:26:51.647Z,99190.29
2022-09-12T07:29:38.192Z,99193.41
2022-09-12T07:32:09.374Z,99194.77
2022-09-12T07:34:40.350Z,99192.93
2022-09-12T07:37:11.025Z,99200.25
2022-09-12T07:39:41.858Z,99200.55
2022-09-12T07:42:13.288Z,99203.48
2022-09-12T07:44:44.565Z,99204.58
2022-09-12T07:47:15.461Z,99203.05
2022-09-12T07:49:46.210Z,99204.08
2022-09-12T07:52:16.841Z,99206.58
2022-09-12T07:54:47.878Z,99207.41
2022-09-12T07:57:18.657Z,99210.23
2022-09-12T07:59:52.994Z,99213.25
2022-09-12T08:02:24.140Z,99210.50
2022-09-12T08:04:54.866Z,99210.11
2022-09-12T08:07:25.976Z,99207.95
2022-09-12T08:09:57.031Z,99204.36
2022-09-12T08:12:28.485Z,99206.61
2022-09-12T08:14:59.314Z,99203.34
2022-09-12T08:17:30.656Z,99204.11
2022-09-12T08:20:01.564Z,99203.77
2022-09-12T08:22:33.224Z,99202.11
2022-09-12T08:25:04.239Z,99202.02
2022-09-12T08:27:34.950Z,99198.05
2022-09-12T08:30:06.857Z,99197.91
2022-09-12T08:32:38.719Z,99189.48
2022-09-12T08:35:11.075Z,99192.67
2022-09-12T08:37:41.742Z,99194.66
2022-09-12T08:40:19.071Z,99192.39
2022-09-12T08:43:01.765Z,99193.29
2022-09-12T08:45:39.624Z,99194.73
2022-09-12T08:48:13.909Z,99190.06
2022-09-12T08:50:49.823Z,99193.95
2022-09-12T08:53:24.488Z,99192.80
2022-09-12T08:55:59.406Z,99191.73
2022-09-12T08:58:36.911Z,99190.48
2022-09-12T09:01:13.952Z,99193.25
2022-09-12T09:04:06.027Z,99192.45
2022-09-12T09:06:56.788Z,99187.11
2022-09-12T09:09:36.553Z,99189.20
2022-09-12T09:12:13.745Z,99183.11
2022-09-12T09:15:14.825Z,99180.27
2022-09-12T09:17:49.989Z,99176.61
2022-09-12T09:20:30.133Z,99175.86
2022-09-12T09:23:08.476Z,99177.11
2022-09-12T09:25:50.244Z,99175.63
2022-09-12T09:28:26.779Z,99177.79
2022-09-12T09:30:57.721Z,99182.14
2022-09-12T09:33:34.289Z,99179.42
2022-09-12T09:36:18.287Z,99178.23
2022-09-12T09:38:54.318Z,99178.16
2022-09-12T09:41:43.917Z,99174.54
2022-09-12T09:44:15.085Z,99172.84
2022-09-12T09:46:45.915Z,99168.23
2022-09-12T09:49:18.182Z,99169.63
2022-09-12T09:51:49.512Z,99170.42
2022-09-12T09:54:26.043Z,99164.82
2022-09-12T09:56:57.351Z,99162.35
2022-09-12T09:59:32.196Z,99157.44
2022-09-12T10:02:23.253Z,99158.83
2022-09-12T10:04:59.516Z,99157.35
2022-09-12T10:07:30.343Z,99158.83
2022-09-12T10:10:19.375Z,99156.91
2022-09-12T10:12:50.286Z,99154.21
2022-09-12T10:15:23.055Z,99159.13
2022-09-12T10:17:55.547Z,99157.83
2022-09-12T10:20:39.140Z,99155.13
2022-09-12T10:23:31.504Z,99155.92
2022-09-12T10:26:04.326Z,99155.49
2022-09-12T10:28:39.415Z,99151.36
2022-09-12T10:31:15.151Z,99152.48
2022-09-12T10:33:52.896Z,99152.08
2022-09-12T10:36:24.812Z,99150.20
2022-09-12T10:38:59.234Z,99150.33
2022-09-12T10:41:39.942Z,99151.76
2022-09-12T10:44:16.346Z,99150.18
2022-09-12T10:46:47.393Z,99148.41
2022-09-12T10:49:24.618Z,99149.61
2022-09-12T10:51:56.868Z,99150.85
2022-09-12T10:54:29.716Z,99152.39
2022-09-12T10:57:17.081Z,99147.45
2022-09-12T11:00:05.352Z,99150.41
2022-09-12T11:02:49.733Z,99154.67
2022-09-12T11:05:36.943Z,99152.64
2022-09-12T11:08:20.251Z,99152.10
2022-09-12T11:10:59.953Z,99149.27
2022-09-12T11:13:54.304Z,99151.39
2022-09-12T11:16:35.849Z,99151.46
2022-09-12T11:19:22.003Z,99147.84
2022-09-12T11:22:09.579Z,99143.94
2022-09-12T11:25:08.918Z,99142.70
2022-09-12T11:27:56.189Z,99146.52
2022-09-12T11:30:27.938Z,99144.08
2022-09-12T11:33:16.093Z,99145.21
2022-09-12T11:35:55.281Z,99141.61
2022-09-12T11:38:30.970Z,99143.65
2022-09-12T11:41:05.000Z,99139.11
2022-09-12T11:43:40.941Z,99142.08
2022-09-12T11:46:19.283Z,99143.67
2022-09-12T11:48:57.967Z,99145.40
2022-09-12T11:51:31.956Z,99139.07
2022-09-12T11:54:13.131Z,99145.34
2022-09-12T11:56:46.600Z,99147.38
2022-09-12T11:59:19.762Z,99147.48
2022-09-12T12:01:56.487Z,99145.54
2022-09-12T12:04:35.919Z,99143.71
2022-09-12T12:07:08.687Z,99145.45
2022-09-12T12:09:47.347Z,99145.91
2022-09-12T12:12:24.922Z,99145.02
2022-09-12T12:14:57.811Z,99146.54
2022-09-12T12:17:29.829Z,99144.50
2022-09-12T12:20:08.156Z,99146.04
2022-09-12T12:22:52.027Z,99144.32
2022-09-12T12:25:42.702Z,99140.15
2022-09-12T12:28:34.864Z,99137.95
2022-09-12T12:31:06.019Z,99138.33
2022-09-12T12:33:55.844Z,99139.76
2022-09-12T12:36:44.605Z,99136.48
2022-09-12T12:40:05.837Z,99134.34
2022-09-12T12:43:06.230Z,99127.66
2022-09-12T12:46:04.595Z,99133.36
2022-09-12T12:48:45.756Z,99129.92
2022-09-12T12:51:36.562Z,99126.92
2022-09-12T12:54:28.455Z,99124.04
2022-09-12T12:57:16.790Z,99121.77
2022-09-12T12:59:52.949Z,99120.82
2022-09-12T13:02:30.416Z,99115.19
2022-09-12T13:05:04.106Z,99117.78
2022-09-12T13:07:38.389Z,99114.66
2022-09-12T13:10:23.335Z,99108.76
2022-09-12T13:12:54.921Z,99105.99
2022-09-12T13:15:50.596Z,99104.68
2022-09-12T13:18:27.883Z,99109.89
2022-09-12T13:21:10.318Z,99108.98
2022-09-12T13:23:41.360Z,99103.88
2022-09-12T13:26:22.009Z,99105.94
2022-09-12T13:29:09.961Z,99107.50
2022-09-12T13:31:45.367Z,99102.69
2022-09-12T13:34:22.192Z,99100.59
2022-09-12T13:37:11.454Z,99096.07
2022-09-12T13:39:49.726Z,99097.59
2022-09-12T13:42:40.945Z,99101.32
2022-09-12T13:45:20.719Z,99100.23
2022-09-12T13:47:58.478Z,99094.95
2022-09-12T13:50:32.994Z,99097.30
2022-09-12T13:53:08.381Z,99094.25
2022-09-12T13:55:41.762Z,99095.05
2022-09-12T13:58:21.152Z,99096.45
2022-09-12T14:01:03.870Z,99091.77
2022-09-12T14:03:58.929Z,99097.21
2022-09-12T14:06:29.925Z,99091.63
2022-09-12T14:09:02.543Z,99089.73
2022-09-12T14:11:35.010Z,99092.04
2022-09-12T14:14:19.886Z,99089.34
2022-09-12T14:16:54.908Z,99086.66
2022-09-12T14:19:29.378Z,99087.41
2022-09-12T14:22:02.262Z,99088.63
2022-09-12T14:24:33.535Z,99086.14
2022-09-12T14:27:05.741Z,99084.59
2022-09-12T14:29:36.573Z,99085.98
2022-09-12T14:32:18.691Z,99084.43
2022-09-12T14:35:19.458Z,99088.08
2022-09-12T14:37:53.163Z,99081.19
2022-09-12T14:40:25.092Z,99083.84
2022-09-12T14:43:01.027Z,99074.04
2022-09-12T14:45:33.649Z,99078.00
2022-09-12T14:48:05.672Z,99077.02
2022-09-12T14:50:38.248Z,99072.37
2022-09-12T14:53:24.959Z,99072.37
2022-09-12T14:56:00.940Z,99071.33
2022-09-12T14:58:33.399Z,99070.28
2022-09-12T15:01:22.494Z,99070.01
2022-09-12T15:03:56.539Z,99066.15
2022-09-12T15:06:31.507Z,99065.84
2022-09-12T15:09:04.411Z,99068.65
2022-09-12T15:11:35.300Z,99065.45
2022-09-12T15:14:15.806Z,99065.29
2022-09-12T15:16:46.624Z,99065.58
2022-09-12T15:19:17.922Z,99070.02
2022-09-12T15:21:48.840Z,99070.27
2022-09-12T15:24:19.842Z,99069.35
2022-09-12T15:26:51.324Z,99066.86
2022-09-12T15:29:22.738Z,99065.70
2022-09-12T15:31:54.223Z,99064.42
2022-09-12T15:34:25.043Z,99062.33
2022-09-12T15:36:56.011Z,99063.84
2022-09-12T15:39:27.592Z,99063.92
2022-09-12T15:41:58.725Z,99064.31
2022-09-12T15:44:29.553Z,99064.11
2022-09-12T15:47:00.387Z,99059.91
2022-09-12T15:49:31.238Z,99058.85
2022-09-12T15:52:02.613Z,99054.58
2022-09-12T15:54:33.528Z,99056.17
2022-09-12T15:57:04.370Z,99055.48
2022-09-12T15:59:35.312Z,99054.73
2022-09-12T16:02:06.322Z,99053.11
2022-09-12T16:04:37.332Z,99049.63
2022-09-12T16:07:08.347Z,99052.15
2022-09-12T16:09:39.650Z,99051.02
2022-09-12T16:12:10.569Z,99051.85
2022-09-12T16:14:41.307Z,99048.21
2022-09-12T16:17:13.259Z,99053.78
2022-09-12T16:19:44.184Z,99052.58
2022-09-12T16:22:15.130Z,99053.02
2022-09-12T16:24:45.883Z,99054.16
2022-09-12T16:27:17.745Z,99055.17
2022-09-12T16:29:48.689Z,99054.42
2022-09-12T16:32:19.612Z,99052.98
2022-09-12T16:34:51.013Z,99053.03
2022-09-12T16:37:22.058Z,99052.30
2022-09-12T16:39:52.785Z,99049.79
2022-09-12T16:42:23.608Z,99047.27
2022-09-12T16:44:54.332Z,99051.98
2022-09-12T16:47:25.193Z,99044.23
2022-09-12T16:49:56.009Z,99048.41
2022-09-12T16:52:26.853Z,99049.23
2022-09-12T16:54:57.710Z,99048.17
2022-09-12T16:57:28.538Z,99048.93
2022-09-12T16:59:59.474Z,99049.34
2022-09-12T17:02:30.260Z,99047.02
2022-09-12T17:05:01.297Z,99044.69
2022-09-12T17:07:32.115Z,99039.66
2022-09-12T17:10:02.937Z,99038.05
2022-09-12T17:12:33.573Z,99035.06
2022-09-12T17:15:05.109Z,99038.27
2022-09-12T17:17:35.983Z,99033.54
2022-09-12T17:20:07.813Z,99033.16
2022-09-12T17:22:38.593Z,99037.96
2022-09-12T17:25:11.120Z,99035.30
2022-09-12T17:27:42.037Z,99036.92
2022-09-12T17:30:14.878Z,99036.91
2022-09-12T17:32:45.539Z,99035.48
2022-09-12T17:35:16.732Z,99033.79
2022-09-12T17:37:47.774Z,99037.63
2022-09-12T17:40:19.086Z,99037.39
2022-09-12T17:42:50.322Z,99040.35
2022-09-12T17:45:21.409Z,99042.12
2022-09-12T17:47:52.590Z,99041.52
2022-09-12T17:50:32.459Z,99042.27
2022-09-12T17:53:05.238Z,99045.38
2022-09-12T17:55:39.568Z,99044.52
2022-09-12T17:58:11.036Z,99045.96
2022-09-12T18:00:59.489Z,99047.20
2022-09-12T18:03:30.270Z,99049.58
2022-09-12T18:06:01.077Z,99047.38
2022-09-12T18:08:31.768Z,99045.49
2022-09-12T18:11:08.498Z,99050.33
2022-09-12T18:13:39.544Z,99048.08
2022-09-12T18:16:12.509Z,99050.96
2022-09-12T18:18:43.937Z,99055.98
2022-09-12T18:21:15.053Z,99053.60
2022-09-12T18:23:45.964Z,99056.61
2022-09-12T18:26:17.128Z,99054.14
2022-09-12T18:28:47.929Z,99055.68
2022-09-12T18:31:21.184Z,99052.64
2022-09-12T18:33:52.659Z,99054.41
2022-09-12T18:36:23.997Z,99049.67
2022-09-12T18:38:54.850Z,99046.79
2022-09-12T18:41:26.927Z,99045.46
2022-09-12T18:43:59.997Z,99049.73
2022-09-12T18:46:33.014Z,99050.48
2022-09-12T18:49:05.080Z,99054.53
2022-09-12T18:51:40.197Z,99054.05
2022-09-12T18:54:15.696Z,99051.42
2022-09-12T18:56:47.763Z,99055.02
2022-09-12T18:59:19.065Z,99055.83
2022-09-12T19:01:50.411Z,99054.56
2022-09-12T19:04:21.370Z,99056.17
2022-09-12T19:06:52.215Z,99060.58
2022-09-12T19:09:23.872Z,99055.17
2022-09-12T19:11:54.864Z,99047.41
2022-09-12T19:14:27.466Z,99046.89
2022-09-12T19:16:58.443Z,99047.20
2022-09-12T19:19:29.350Z,99047.45
2022-09-12T19:22:01.420Z,99043.89
2022-09-12T19:24:32.290Z,99047.79
2022-09-12T19:27:03.209Z,99042.94
2022-09-12T19:29:34.158Z,99041.41
2022-09-12T19:32:05.853Z,99042.33
2022-09-12T19:34:36.546Z,99042.94
2022-09-12T19:37:07.620Z,99041.63
2022-09-12T19:39:38.288Z,99042.90
2022-09-12T19:42:09.482Z,99040.39
2022-09-12T19:44:40.244Z,99039.73
2022-09-12T19:47:11.394Z,99039.63
2022-09-12T19:49:42.543Z,99039.84
2022-09-12T19:52:16.877Z,99040.45
2022-09-12T19:54:48.559Z,99037.56
2022-09-12T19:57:19.359Z,99034.42
2022-09-12T19:59:50.245Z,99034.58
2022-09-12T20:02:21.010Z,99029.20
2022-09-12T20:04:51.979Z,99029.75
2022-09-12T20:07:22.856Z,99024.96
2022-09-12T20:09:55.151Z,99031.45
2022-09-12T20:12:26.162Z,99027.95
2022-09-12T20:14:57.134Z,99027.45
2022-09-12T20:17:28.232Z,99027.38
2022-09-12T20:19:59.086Z,99026.14
2022-09-12T20:22:30.061Z,99024.02
2022-09-12T20:25:01.060Z,99030.42
2022-09-12T20:27:31.897Z,99033.06
2022-09-12T20:30:02.777Z,99030.42
2022-09-12T20:32:33.682Z,99033.48
2022-09-12T20:35:04.726Z,99035.82
2022-09-12T20:37:36.033Z,99032.98
2022-09-12T20:40:08.621Z,99030.48
2022-09-12T20:42:39.901Z,99033.31
2022-09-12T20:45:11.919Z,99032.08
2022-09-12T20:47:42.591Z,99031.42
2022-09-12T20:50:14.684Z,99030.88
2022-09-12T20:52:45.459Z,99028.06
2022-09-12T20:55:16.366Z,99032.25
2022-09-12T20:57:47.104Z,99032.58
2022-09-12T21:00:18.733Z,99025.13
2022-09-12T21:02:50.857Z,99025.02
2022-09-12T21:05:21.872Z,99028.67
2022-09-12T21:07:52.620Z,99024.23
2022-09-12T21:10:23.278Z,99026.23
2022-09-12T21:12:54.805Z,99028.82
2022-09-12T21:15:25.462Z,99027.84
2022-09-12T21:17:56.483Z,99031.93
2022-09-12T21:20:27.222Z,99029.16
2022-09-12T21:22:57.926Z,99031.92
2022-09-12T21:25:29.213Z,99032.64
2022-09-12T21:27:59.926Z,99034.20
2022-09-12T21:30:30.746Z,99036.87
2022-09-12T21:33:01.431Z,99036.48
2022-09-12T21:35:32.165Z,99033.20
2022-09-12T21:38:02.870Z,99032.40
2022-09-12T21:40:33.946Z,99027.50
2022-09-12T21:43:08.113Z,99028.01
2022-09-12T21:45:41.555Z,99027.89
2022-09-12T21:48:12.311Z,99028.84
2022-09-12T21:50:43.042Z,99026.90
2022-09-12T21:53:13.797Z,99031.60
2022-09-12T21:55:44.728Z,99025.40
2022-09-12T21:58:15.485Z,99027.89
2022-09-12T22:00:46.670Z,99020.24
2022-09-12T22:03:18.164Z,99023.17
2022-09-12T22:05:57.450Z,99022.34
2022-09-12T22:08:28.694Z,99017.98
2022-09-12T22:11:02.298Z,99016.21
2022-09-12T22:13:33.859Z,99012.17
2022-09-12T22:16:05.231Z,99014.87
2022-09-12T22:18:36.956Z,99013.23
2022-09-12T22:21:09.852Z,99013.60
2022-09-12T22:23:58.635Z,99005.27
2022-09-12T22:26:29.589Z,99002.21
2022-09-12T22:29:01.153Z,99010.01
2022-09-12T22:31:32.115Z,99008.33
2022-09-12T22:34:03.589Z,99009.00
2022-09-12T22:36:38.256Z,99010.77
2022-09-12T22:39:10.062Z,99012.15
2022-09-12T22:41:40.881Z,99003.54
2022-09-12T22:44:12.317Z,99000.72
2022-09-12T22:46:43.313Z,98996.85
2022-09-12T22:49:14.234Z,98999.48
2022-09-12T22:51:44.960Z,99002.54
2022-09-12T22:54:15.962Z,98997.14
2022-09-12T22:56:47.050Z,98989.30
2022-09-12T22:59:18.442Z,98985.66
2022-09-12T23:01:49.606Z,98981.19
2022-09-12T23:04:20.312Z,98982.55
2022-09-12T23:06:51.134Z,98981.59
2022-09-12T23:09:22.031Z,98976.13
2022-09-12T23:11:53.065Z,98980.38
2022-09-12T23:14:23.693Z,98978.92
2022-09-12T23:16:54.476Z,98979.90
2022-09-12T23:19:25.200Z,98976.80
2022-09-12T23:21:56.278Z,98980.55
2022-09-12T23:24:27.094Z,98979.19
2022-09-12T23:26:57.711Z,98981.29
2022-09-12T23:29:28.897Z,98974.88
2022-09-12T23:31:59.637Z,98977.29
2022-09-12T23:34:31.089Z,98974.55
2022-09-12T23:37:01.827Z,98977.34
2022-09-12T23:39:32.872Z,98977.48
2022-09-12T23:42:03.715Z,98977.23
2022-09-12T23:44:34.657Z,98976.70
2022-09-12T23:47:05.601Z,98974.29
2022-09-12T23:49:36.245Z,98969.14
2022-09-12T23:52:07.349Z,98964.84
2022-09-12T23:54:38.015Z,98962.82
2022-09-12T23:57:08.858Z,98957.71
2022-09-12T23:59:39.450Z,98957.87
